Aeroporto :
LOGIN :

Iscrizione | Disclaimer

   EN    FR    IT 

 










Sommario :    VFR   VFR Marginale   IFR   IFR Intensivo   IFR Molto Intensivo
Visibilità : 
Base nubi : 
>= 8 km
>= 3000ft
5 / 8 km
1000 / 3000 ft
1500m / 5 km
500 / 1000 ft
800 / 1500m
200 / 500 ft
< 800m
< 200 ft
Simboli :   Temporali  Nebbia  Neve Forte  Precipitazioni Forti  Vento > 20 kt
SIGMETs :   Varie  Temporali  Ghiacco  Turbolenza  Onda orograficha  Ceneri Vulcaniche






- Altitudine del aeroporto : 36 ft
- Codice IATA : RIX


EVRA - Riga

ULTIMO METAR :
  • 071050Z 21017KT 180V240 CAVOK 20/M00 Q1023 NOSIG

METARs OBSOLETI :
  • 071020Z 19014G24KT CAVOK 20/01 Q1023 NOSIG
  • 070950Z 19013KT 170V230 CAVOK 18/01 Q1023 NOSIG
  • 070920Z 19014KT CAVOK 17/M00 Q1024 NOSIG
  • 070850Z 18012KT CAVOK 15/M00 Q1024 NOSIG
  • 070820Z 18014KT CAVOK 14/M01 Q1025 NOSIG

TAF AMD TAF EVRA
Valido dal 07 a 10 ore il 08 a 09 ore UTC


071054Z 0710/0809 18013KT CAVOK
BECMG 0710/0712 24018G30KT
TEMPO 0712/0718 26015G30KT SCT025CB BKN045
BECMG 0716/0717 30010KT
TEMPO 0720/0723 32015G30KT BKN025



MetMap, La meteo Aeronautica in un colpo d'occhio ! - Copyright ORBIFLY Dicembre 2007 - Disclaimer

ORBIFLY MET'MAP TEAM :

Programmazione e sviluppo : Alexandra Zaïnal
Concezione : Baudouin d'Aumeries
Aiuto per la programmazione : Marc-Olivier Méhu
Supporto tecnico e logistico : Manuel Goepfert
Aiuto per la traduzione : Arnaldo La Scala

Contatto : metmap@orbifly.com




FONTI E CREDITI :

   NOAA